Time,TemperatureF,DewpointF,PressureIn,WindDirection,WindDirectionDegrees,WindSpeedMPH,WindSpeedGustMPH,Humidity,HourlyPrecipIn,Conditions,Clouds,dailyrainin,SoftwareType,DateUTC
2013-05-04 00:03:00,47.4,43.0,30.35,ESE,122,0.0,1.0,84,0.00,,,0.00,weatherlink.com 1.10,2013-05-04 04:03:00,
2013-05-04 00:18:00,47.8,43.0,30.35,ESE,108,1.0,1.0,83,0.00,,,0.00,weatherlink.com 1.10,2013-05-04 04:18:00,
2013-05-04 00:33:00,47.9,43.0,30.35,ESE,113,0.0,3.0,83,0.00,,,0.00,weatherlink.com 1.10,2013-05-04 04:33:00,
2013-05-04 00:48:00,47.6,43.0,30.35,ESE,110,1.0,2.0,83,0.00,,,0.00,weatherlink.com 1.10,2013-05-04 04:48:00,
2013-05-04 01:03:00,46.6,42.0,30.34,SE,126,0.0,0.0,85,0.00,,,0.00,weatherlink.com 1.10,2013-05-04 05:03:00,
2013-05-04 01:18:00,45.0,42.0,30.34,SE,126,1.0,1.0,89,0.00,,,0.00,weatherlink.com 1.10,2013-05-04 05:18:00,
2013-05-04 01:34:00,43.7,42.0,30.33,NW,312,1.0,2.0,93,0.00,,,0.00,weatherlink.com 1.10,2013-05-04 05:34:00,
2013-05-04 01:49:00,42.9,41.0,30.32,NW,315,1.0,2.0,94,0.00,,,0.00,weatherlink.com 1.10,2013-05-04 05:49:00,
2013-05-04 02:04:00,42.5,41.0,30.32,NW,315,1.0,1.0,95,0.00,,,0.00,weatherlink.com 1.10,2013-05-04 06:04:00,
2013-05-04 02:19:00,42.4,41.0,30.32,NW,315,1.0,2.0,96,0.00,,,0.00,weatherlink.com 1.10,2013-05-04 06:19:00,
2013-05-04 02:34:00,42.2,41.0,30.31,NW,315,1.0,2.0,96,0.00,,,0.00,weatherlink.com 1.10,2013-05-04 06:34:00,
2013-05-04 02:49:00,42.0,41.0,30.31,NW,314,1.0,1.0,95,0.00,,,0.00,weatherlink.com 1.10,2013-05-04 06:49:00,
2013-05-04 03:04:00,41.5,41.0,30.31,NW,315,2.0,2.0,96,0.00,,,0.00,weatherlink.com 1.10,2013-05-04 07:04:00,
2013-05-04 03:19:00,41.6,41.0,30.31,NW,311,1.0,3.0,97,0.00,,,0.00,weatherlink.com 1.10,2013-05-04 07:19:00,
2013-05-04 03:34:00,41.1,40.0,30.31,NW,311,2.0,3.0,97,0.00,,,0.00,weatherlink.com 1.10,2013-05-04 07:34:00,
2013-05-04 03:49:00,40.8,40.0,30.31,NW,311,2.0,2.0,97,0.00,,,0.00,weatherlink.com 1.10,2013-05-04 07:49:00,
2013-05-04 04:04:00,40.8,40.0,30.31,NW,311,2.0,2.0,97,0.00,,,0.00,weatherlink.com 1.10,2013-05-04 08:04:00,
2013-05-04 04:19:00,40.4,40.0,30.30,NW,311,1.0,2.0,97,0.00,,,0.00,weatherlink.com 1.10,2013-05-04 08:19:00,
2013-05-04 04:34:00,40.1,40.0,30.30,NW,311,2.0,2.0,98,0.00,,,0.00,weatherlink.com 1.10,2013-05-04 08:34:00,
2013-05-04 04:49:00,39.8,39.0,30.30,NW,311,1.0,2.0,98,0.00,,,0.00,weatherlink.com 1.10,2013-05-04 08:49:00,
2013-05-04 05:04:00,39.6,39.0,30.30,NNW,327,1.0,2.0,98,0.00,,,0.00,weatherlink.com 1.10,2013-05-04 09:04:00,
2013-05-04 05:19:00,39.4,39.0,30.30,NW,326,1.0,2.0,98,0.00,,,0.00,weatherlink.com 1.10,2013-05-04 09:19:00,
2013-05-04 05:34:00,39.4,39.0,30.31,NW,326,1.0,2.0,98,0.00,,,0.00,weatherlink.com 1.10,2013-05-04 09:34:00,
2013-05-04 05:49:00,39.1,39.0,30.31,NW,326,1.0,1.0,98,0.00,,,0.00,weatherlink.com 1.10,2013-05-04 09:49:00,
2013-05-04 06:04:00,39.3,39.0,30.31,NW,323,1.0,2.0,99,0.00,,,0.00,weatherlink.com 1.10,2013-05-04 10:04:00,
2013-05-04 06:19:00,39.3,39.0,30.32,NW,323,1.0,2.0,99,0.00,,,0.00,weatherlink.com 1.10,2013-05-04 10:19:00,
2013-05-04 06:34:00,39.9,40.0,30.32,NW,323,1.0,2.0,99,0.00,,,0.00,weatherlink.com 1.10,2013-05-04 10:34:00,
2013-05-04 06:49:00,40.8,40.0,30.32,NW,323,0.0,1.0,98,0.00,,,0.00,weatherlink.com 1.10,2013-05-04 10:49:00,
2013-05-04 07:04:00,42.7,43.0,30.32,NW,323,0.0,0.0,99,0.00,,,0.00,weatherlink.com 1.10,2013-05-04 11:04:00,
2013-05-04 07:19:00,45.0,45.0,30.32,NW,323,0.0,0.0,98,0.00,,,0.00,weatherlink.com 1.10,2013-05-04 11:19:00,
2013-05-04 07:34:00,46.2,46.0,30.32,NW,323,0.0,1.0,98,0.00,,,0.00,weatherlink.com 1.10,2013-05-04 11:34:00,
2013-05-04 07:49:00,49.2,46.0,30.32,East,81,1.0,1.0,89,0.00,,,0.00,weatherlink.com 1.10,2013-05-04 11:49:00,
2013-05-04 08:04:00,51.4,46.0,30.32,SE,127,1.0,1.0,83,0.00,,,0.00,weatherlink.com 1.10,2013-05-04 12:04:00,
2013-05-04 08:19:00,52.5,46.0,30.32,NW,326,1.0,3.0,78,0.00,,,0.00,weatherlink.com 1.10,2013-05-04 12:19:00,
2013-05-04 08:34:00,52.4,46.0,30.33,NE,37,0.0,3.0,78,0.00,,,0.00,weatherlink.com 1.10,2013-05-04 12:34:00,
2013-05-04 08:49:00,53.8,46.0,30.33,East,84,2.0,3.0,76,0.00,,,0.00,weatherlink.com 1.10,2013-05-04 12:49:00,
2013-05-04 09:04:00,53.9,47.0,30.32,SE,125,2.0,7.0,78,0.00,,,0.00,weatherlink.com 1.10,2013-05-04 13:04:00,
2013-05-04 09:20:00,55.3,48.0,30.32,SE,141,3.0,4.0,75,0.00,,,0.00,weatherlink.com 1.10,2013-05-04 13:20:00,
2013-05-04 09:35:00,56.3,48.0,30.31,ESE,120,4.0,6.0,73,0.00,,,0.00,weatherlink.com 1.10,2013-05-04 13:35:00,
2013-05-04 09:50:00,56.5,48.0,30.31,ESE,123,1.0,8.0,72,0.00,,,0.00,weatherlink.com 1.10,2013-05-04 13:50:00,
2013-05-04 10:05:00,57.5,48.0,30.31,SSE,150,7.0,7.0,71,0.00,,,0.00,weatherlink.com 1.10,2013-05-04 14:05:00,
2013-05-04 10:20:00,58.0,48.0,30.30,East,98,7.0,8.0,69,0.00,,,0.00,weatherlink.com 1.10,2013-05-04 14:20:00,
2013-05-04 10:35:00,59.5,48.0,30.30,SE,127,2.0,9.0,65,0.00,,,0.00,weatherlink.com 1.10,2013-05-04 14:35:00,
2013-05-04 10:50:00,59.3,48.0,30.30,East,79,1.0,9.0,66,0.00,,,0.00,weatherlink.com 1.10,2013-05-04 14:50:00,
2013-05-04 11:05:00,60.6,48.0,30.30,ESE,117,5.0,8.0,64,0.00,,,0.00,weatherlink.com 1.10,2013-05-04 15:05:00,
2013-05-04 11:20:00,60.6,47.0,30.29,NE,47,3.0,9.0,62,0.00,,,0.00,weatherlink.com 1.10,2013-05-04 15:20:00,
2013-05-04 11:35:00,60.9,47.0,30.29,SE,131,5.0,6.0,61,0.00,,,0.00,weatherlink.com 1.10,2013-05-04 15:35:00,
2013-05-04 11:50:00,62.5,49.0,30.29,SE,134,3.0,7.0,62,0.00,,,0.00,weatherlink.com 1.10,2013-05-04 15:50:00,
2013-05-04 12:05:00,63.0,47.0,30.28,East,91,7.0,9.0,57,0.00,,,0.00,weatherlink.com 1.10,2013-05-04 16:05:00,
2013-05-04 12:20:00,64.0,47.0,30.27,NNE,22,4.0,11.0,55,0.00,,,0.00,weatherlink.com 1.10,2013-05-04 16:20:00,
2013-05-04 12:35:00,64.9,42.0,30.26,ESE,122,6.0,9.0,44,0.00,,,0.00,weatherlink.com 1.10,2013-05-04 16:35:00,
2013-05-04 12:50:00,65.8,45.0,30.26,ENE,77,8.0,11.0,48,0.00,,,0.00,weatherlink.com 1.10,2013-05-04 16:50:00,
2013-05-04 13:05:00,65.6,45.0,30.26,South,170,3.0,10.0,47,0.00,,,0.00,weatherlink.com 1.10,2013-05-04 17:05:00,
2013-05-04 13:20:00,67.2,46.0,30.25,ESE,123,5.0,8.0,46,0.00,,,0.00,weatherlink.com 1.10,2013-05-04 17:20:00,
2013-05-04 13:35:00,66.9,43.0,30.25,ENE,76,3.0,9.0,42,0.00,,,0.00,weatherlink.com 1.10,2013-05-04 17:35:00,
2013-05-04 13:50:00,67.0,43.0,30.25,SE,132,5.0,12.0,42,0.00,,,0.00,weatherlink.com 1.10,2013-05-04 17:50:00,
2013-05-04 14:05:00,67.7,43.0,30.24,South,172,8.0,14.0,41,0.00,,,0.00,weatherlink.com 1.10,2013-05-04 18:05:00,
2013-05-04 14:20:00,67.4,45.0,30.24,ENE,72,3.0,12.0,44,0.00,,,0.00,weatherlink.com 1.10,2013-05-04 18:20:00,
2013-05-04 14:35:00,68.2,43.0,30.24,NE,56,7.0,12.0,41,0.00,,,0.00,weatherlink.com 1.10,2013-05-04 18:35:00,
2013-05-04 14:50:00,68.4,44.0,30.23,NE,40,4.0,12.0,42,0.00,,,0.00,weatherlink.com 1.10,2013-05-04 18:50:00,
2013-05-04 15:05:00,69.0,44.0,30.22,East,79,9.0,9.0,41,0.00,,,0.00,weatherlink.com 1.10,2013-05-04 19:05:00,
2013-05-04 15:20:00,69.0,45.0,30.22,SSE,152,4.0,10.0,42,0.00,,,0.00,weatherlink.com 1.10,2013-05-04 19:20:00,
2013-05-04 15:36:00,68.8,43.0,30.21,ESE,122,2.0,12.0,39,0.00,,,0.00,weatherlink.com 1.10,2013-05-04 19:36:00,
2013-05-04 15:51:00,69.2,43.0,30.21,SE,128,4.0,10.0,39,0.00,,,0.00,weatherlink.com 1.10,2013-05-04 19:51:00,
2013-05-04 16:06:00,68.9,43.0,30.20,SE,132,4.0,12.0,39,0.00,,,0.00,weatherlink.com 1.10,2013-05-04 20:06:00,
2013-05-04 16:21:00,69.5,43.0,30.20,ESE,113,4.0,10.0,39,0.00,,,0.00,weatherlink.com 1.10,2013-05-04 20:21:00,
2013-05-04 16:36:00,69.5,45.0,30.20,East,93,1.0,12.0,42,0.00,,,0.00,weatherlink.com 1.10,2013-05-04 20:36:00,
2013-05-04 16:51:00,69.5,43.0,30.20,SE,131,3.0,8.0,38,0.00,,,0.00,weatherlink.com 1.10,2013-05-04 20:51:00,
2013-05-04 17:06:00,69.4,43.0,30.19,SE,139,5.0,12.0,39,0.00,,,0.00,weatherlink.com 1.10,2013-05-04 21:06:00,
2013-05-04 17:21:00,69.6,43.0,30.19,East,94,3.0,8.0,39,0.00,,,0.00,weatherlink.com 1.10,2013-05-04 21:21:00,
2013-05-04 17:36:00,69.3,45.0,30.19,ENE,76,4.0,8.0,42,0.00,,,0.00,weatherlink.com 1.10,2013-05-04 21:36:00,
2013-05-04 17:51:00,68.9,43.0,30.19,East,79,1.0,8.0,40,0.00,,,0.00,weatherlink.com 1.10,2013-05-04 21:51:00,
2013-05-04 18:06:00,68.9,43.0,30.19,ESE,117,2.0,7.0,39,0.00,,,0.00,weatherlink.com 1.10,2013-05-04 22:06:00,
2013-05-04 18:21:00,68.8,46.0,30.19,ESE,122,5.0,8.0,44,0.00,,,0.00,weatherlink.com 1.10,2013-05-04 22:21:00,
2013-05-04 18:36:00,68.3,42.0,30.19,SE,136,2.0,10.0,39,0.00,,,0.00,weatherlink.com 1.10,2013-05-04 22:36:00,
2013-05-04 18:51:00,67.4,42.0,30.19,SSE,160,2.0,10.0,40,0.00,,,0.00,weatherlink.com 1.10,2013-05-04 22:51:00,
2013-05-04 19:06:00,66.3,41.0,30.19,ESE,115,2.0,9.0,40,0.00,,,0.00,weatherlink.com 1.10,2013-05-04 23:06:00,
2013-05-04 19:21:00,65.1,42.0,30.19,SSE,155,2.0,7.0,43,0.00,,,0.00,weatherlink.com 1.10,2013-05-04 23:21:00,
2013-05-04 19:36:00,64.0,42.0,30.19,SE,141,3.0,8.0,45,0.00,,,0.00,weatherlink.com 1.10,2013-05-04 23:36:00,
2013-05-04 19:51:00,62.5,42.0,30.19,SE,142,1.0,4.0,48,0.00,,,0.00,weatherlink.com 1.10,2013-05-04 23:51:00,
2013-05-04 20:06:00,61.7,42.0,30.19,SE,131,2.0,3.0,49,0.00,,,0.00,weatherlink.com 1.10,2013-05-05 00:06:00,
2013-05-04 20:21:00,60.6,42.0,30.19,SSE,153,1.0,3.0,51,0.00,,,0.00,weatherlink.com 1.10,2013-05-05 00:21:00,
2013-05-04 20:36:00,59.5,42.0,30.19,SSE,150,1.0,2.0,53,0.00,,,0.00,weatherlink.com 1.10,2013-05-05 00:36:00,
2013-05-04 20:51:00,58.1,41.0,30.20,SSE,150,0.0,1.0,54,0.00,,,0.00,weatherlink.com 1.10,2013-05-05 00:51:00,
2013-05-04 21:06:00,58.1,41.0,30.20,SE,141,1.0,2.0,54,0.00,,,0.00,weatherlink.com 1.10,2013-05-05 01:06:00,
2013-05-04 21:21:00,57.5,41.0,30.21,SE,130,0.0,2.0,55,0.00,,,0.00,weatherlink.com 1.10,2013-05-05 01:21:00,
2013-05-04 21:36:00,56.8,41.0,30.21,ENE,58,2.0,2.0,57,0.00,,,0.00,weatherlink.com 1.10,2013-05-05 01:36:00,
2013-05-04 21:51:00,56.7,41.0,30.22,SSE,160,2.0,4.0,57,0.00,,,0.00,weatherlink.com 1.10,2013-05-05 01:51:00,
2013-05-04 22:06:00,55.4,42.0,30.23,SSE,148,0.0,1.0,60,0.00,,,0.00,weatherlink.com 1.10,2013-05-05 02:06:00,
2013-05-04 22:21:00,54.6,41.0,30.23,SSE,161,0.0,1.0,61,0.00,,,0.00,weatherlink.com 1.10,2013-05-05 02:21:00,
2013-05-04 22:36:00,54.6,41.0,30.24,SSE,162,0.0,2.0,61,0.00,,,0.00,weatherlink.com 1.10,2013-05-05 02:36:00,
2013-05-04 22:51:00,54.1,41.0,30.24,SSE,165,3.0,5.0,62,0.00,,,0.00,weatherlink.com 1.10,2013-05-05 02:51:00,
2013-05-04 23:06:00,53.2,42.0,30.25,SE,124,3.0,4.0,65,0.00,,,0.00,weatherlink.com 1.10,2013-05-05 03:06:00,
2013-05-04 23:21:00,52.5,42.0,30.24,SE,134,3.0,5.0,68,0.00,,,0.00,weatherlink.com 1.10,2013-05-05 03:21:00,
2013-05-04 23:36:00,51.6,42.0,30.25,SSE,150,2.0,3.0,71,0.00,,,0.00,weatherlink.com 1.10,2013-05-05 03:36:00,
2013-05-04 23:51:00,51.2,44.0,30.25,SE,146,2.0,5.0,75,0.00,,,0.00,weatherlink.com 1.10,2013-05-05 03:51:00,